createdAt,value
2019-02-19T00:01:05.568Z,4.00
2019-02-19T00:03:36.872Z,3.90
2019-02-19T00:06:07.221Z,3.80
2019-02-19T00:08:37.978Z,3.80
2019-02-19T00:11:08.448Z,3.70
2019-02-19T00:13:38.685Z,3.80
2019-02-19T00:16:13.370Z,3.90
2019-02-19T00:18:43.358Z,3.90
2019-02-19T00:21:14.083Z,3.90
2019-02-19T00:23:44.346Z,3.80
2019-02-19T00:26:18.952Z,3.80
2019-02-19T00:28:49.304Z,3.80
2019-02-19T00:31:20.193Z,3.80
2019-02-19T00:33:50.464Z,3.80
2019-02-19T00:36:20.946Z,3.70
2019-02-19T00:38:51.218Z,3.70
2019-02-19T00:41:21.468Z,3.70
2019-02-19T00:43:51.910Z,3.60
2019-02-19T00:46:22.172Z,3.60
2019-02-19T00:48:52.662Z,3.60
2019-02-19T00:51:22.919Z,3.60
2019-02-19T00:53:53.419Z,3.50
2019-02-19T00:56:23.684Z,3.50
2019-02-19T00:58:54.168Z,3.60
2019-02-19T01:01:24.762Z,3.70
2019-02-19T01:03:56.155Z,3.60
2019-02-19T01:06:26.406Z,3.70
2019-02-19T01:08:56.628Z,3.60
2019-02-19T01:11:27.189Z,3.60
2019-02-19T01:13:57.600Z,3.60
2019-02-19T01:16:28.694Z,3.50
2019-02-19T01:18:59.357Z,3.50
2019-02-19T01:21:29.611Z,3.40
2019-02-19T01:23:59.879Z,3.50
2019-02-19T01:26:30.613Z,3.40
2019-02-19T01:29:00.993Z,3.40
2019-02-19T01:31:32.945Z,3.40
2019-02-19T01:34:03.203Z,3.40
2019-02-19T01:36:33.551Z,3.40
2019-02-19T01:39:05.711Z,3.40
2019-02-19T01:41:36.227Z,3.30
2019-02-19T01:44:07.981Z,3.30
2019-02-19T01:46:38.229Z,3.30
2019-02-19T01:49:09.215Z,3.20
2019-02-19T01:51:39.461Z,3.30
2019-02-19T01:54:10.109Z,3.20
2019-02-19T01:56:40.373Z,3.30
2019-02-19T01:59:10.627Z,3.20
2019-02-19T02:01:41.647Z,3.20
2019-02-19T02:04:12.769Z,3.10
2019-02-19T02:06:43.371Z,3.00
2019-02-19T02:09:13.630Z,3.10
2019-02-19T02:11:44.115Z,3.00
2019-02-19T02:14:14.365Z,2.90
2019-02-19T02:16:44.629Z,2.90
2019-02-19T02:19:15.114Z,2.90
2019-02-19T02:21:45.292Z,2.90
2019-02-19T02:24:15.563Z,2.90
2019-02-19T02:26:46.372Z,2.90
2019-02-19T02:29:16.629Z,2.80
2019-02-19T02:31:47.435Z,2.80
2019-02-19T02:34:17.696Z,2.80
2019-02-19T02:36:48.261Z,2.70
2019-02-19T02:39:18.471Z,2.80
2019-02-19T02:41:49.268Z,2.70
2019-02-19T02:44:19.571Z,2.80
2019-02-19T02:46:49.746Z,2.80
2019-02-19T02:49:20.328Z,2.80
2019-02-19T02:51:50.592Z,2.80
2019-02-19T02:54:20.970Z,2.80
2019-02-19T02:56:51.681Z,2.80
2019-02-19T02:59:22.329Z,2.80
2019-02-19T03:01:52.895Z,2.80
2019-02-19T03:04:24.632Z,2.80
2019-02-19T03:07:06.540Z,2.80
2019-02-19T03:09:37.153Z,2.70
2019-02-19T03:12:07.419Z,2.60
2019-02-19T03:14:37.675Z,2.60
2019-02-19T03:17:08.139Z,2.60
2019-02-19T03:19:38.496Z,2.40
2019-02-19T03:22:08.789Z,2.40
2019-02-19T03:24:39.623Z,2.40
2019-02-19T03:27:11.037Z,2.40
2019-02-19T03:29:41.391Z,2.40
2019-02-19T03:32:12.747Z,2.50
2019-02-19T03:34:42.998Z,2.40
2019-02-19T03:37:13.795Z,2.40
2019-02-19T03:39:44.057Z,2.30
2019-02-19T03:42:14.564Z,2.30
2019-02-19T03:44:44.878Z,2.20
2019-02-19T03:47:15.592Z,2.30
2019-02-19T03:49:45.778Z,2.20
2019-02-19T03:52:16.365Z,2.30
2019-02-19T03:54:46.825Z,2.20
2019-02-19T03:57:17.420Z,2.20
2019-02-19T03:59:47.989Z,2.10
2019-02-19T04:02:19.100Z,2.00
2019-02-19T04:04:50.830Z,1.90
2019-02-19T04:07:21.376Z,1.90
2019-02-19T04:09:51.673Z,1.90
2019-02-19T04:12:22.124Z,1.90
2019-02-19T04:14:52.419Z,1.90
2019-02-19T04:17:23.184Z,1.90
2019-02-19T04:19:53.447Z,1.90
2019-02-19T04:22:23.730Z,1.80
2019-02-19T04:24:54.461Z,1.80
2019-02-19T04:27:24.709Z,1.90
2019-02-19T04:29:54.983Z,1.90
2019-02-19T04:32:26.861Z,2.00
2019-02-19T04:34:57.162Z,1.90
2019-02-19T04:37:29.785Z,2.00
2019-02-19T04:39:59.718Z,1.90
2019-02-19T04:42:30.316Z,1.90
2019-02-19T04:45:00.716Z,1.90
2019-02-19T04:47:31.192Z,1.80
2019-02-19T04:50:01.440Z,1.90
2019-02-19T04:52:32.142Z,1.80
2019-02-19T04:55:02.398Z,1.80
2019-02-19T04:57:33.182Z,1.80
2019-02-19T05:00:05.842Z,1.90
2019-02-19T05:02:36.702Z,1.80
2019-02-19T05:05:07.976Z,1.90
2019-02-19T05:07:38.708Z,1.90
2019-02-19T05:10:09.191Z,1.90
2019-02-19T05:12:39.591Z,1.90
2019-02-19T05:15:10.399Z,1.90
2019-02-19T05:17:41.107Z,2.00
2019-02-19T05:20:11.392Z,2.00
2019-02-19T05:22:43.012Z,2.00
2019-02-19T05:25:13.370Z,2.10
2019-02-19T05:27:43.692Z,2.00
2019-02-19T05:30:14.374Z,2.10
2019-02-19T05:32:44.975Z,2.10
2019-02-19T05:35:15.757Z,2.00
2019-02-19T05:37:46.047Z,2.00
2019-02-19T05:40:16.790Z,1.90
2019-02-19T05:42:47.042Z,2.00
2019-02-19T05:45:17.509Z,1.90
2019-02-19T05:47:47.769Z,2.00
2019-02-19T05:50:18.585Z,2.10
2019-02-19T05:52:48.884Z,2.10
2019-02-19T05:55:19.411Z,2.20
2019-02-19T05:57:49.797Z,2.20
2019-02-19T06:00:20.062Z,2.20
2019-02-19T06:02:50.769Z,2.20
2019-02-19T06:05:21.983Z,2.20
2019-02-19T06:07:52.595Z,2.20
2019-02-19T06:10:22.841Z,2.20
2019-02-19T06:12:53.675Z,2.20
2019-02-19T06:15:23.957Z,2.30
2019-02-19T06:17:54.425Z,2.20
2019-02-19T06:20:24.646Z,2.30
2019-02-19T06:22:55.475Z,2.30
2019-02-19T06:25:25.766Z,2.30
2019-02-19T06:27:56.229Z,2.50
2019-02-19T06:30:26.479Z,2.50
2019-02-19T06:32:57.580Z,2.40
2019-02-19T06:35:27.899Z,2.40
2019-02-19T06:37:58.983Z,2.50
2019-02-19T06:40:30.109Z,2.60
2019-02-19T06:43:00.644Z,2.70
2019-02-19T06:45:30.901Z,2.70
2019-02-19T06:48:01.507Z,2.80
2019-02-19T06:50:31.914Z,2.90
2019-02-19T06:53:02.164Z,2.90
2019-02-19T06:55:32.650Z,2.90
2019-02-19T06:58:02.885Z,2.90
2019-02-19T07:00:33.402Z,3.00
2019-02-19T07:03:11.647Z,3.10
2019-02-19T07:05:43.171Z,3.10
2019-02-19T07:08:13.523Z,3.20
2019-02-19T07:10:43.853Z,3.30
2019-02-19T07:13:14.182Z,3.40
2019-02-19T07:15:44.430Z,3.40
2019-02-19T07:18:14.964Z,3.50
2019-02-19T07:20:45.357Z,3.50
2019-02-19T07:23:15.559Z,3.70
2019-02-19T07:25:46.703Z,3.70
2019-02-19T07:28:16.946Z,3.80
2019-02-19T07:30:47.757Z,3.80
2019-02-19T07:33:18.464Z,3.90
2019-02-19T07:35:48.714Z,3.90
2019-02-19T07:38:19.384Z,4.00
2019-02-19T07:40:49.652Z,4.10
2019-02-19T07:43:20.078Z,4.20
2019-02-19T07:45:52.170Z,4.30
2019-02-19T07:48:22.380Z,4.40
2019-02-19T07:50:52.670Z,4.40
2019-02-19T07:53:23.222Z,4.40
2019-02-19T07:55:53.462Z,4.50
2019-02-19T07:58:24.194Z,4.60
2019-02-19T08:00:54.438Z,4.70
2019-02-19T08:03:25.873Z,4.80
2019-02-19T08:05:57.200Z,4.90
2019-02-19T08:08:28.554Z,5.00
2019-02-19T08:10:58.988Z,5.00
2019-02-19T08:13:29.494Z,5.20
2019-02-19T08:15:59.778Z,5.30
2019-02-19T08:18:30.250Z,5.40
2019-02-19T08:21:00.535Z,5.40
2019-02-19T08:23:31.020Z,5.60
2019-02-19T08:26:01.290Z,5.70
2019-02-19T08:28:32.538Z,5.70
2019-02-19T08:31:02.991Z,5.80
2019-02-19T08:33:33.895Z,5.90
2019-02-19T08:36:04.405Z,5.90
2019-02-19T08:38:34.894Z,6.00
2019-02-19T08:41:05.147Z,6.10
2019-02-19T08:43:35.631Z,6.20
2019-02-19T08:46:05.787Z,6.20
2019-02-19T08:48:36.312Z,6.30
2019-02-19T08:51:06.535Z,6.50
2019-02-19T08:53:37.076Z,6.60
2019-02-19T08:56:07.312Z,6.70
2019-02-19T08:58:40.296Z,6.80
2019-02-19T09:01:10.550Z,6.90
2019-02-19T09:03:41.310Z,7.00
2019-02-19T09:06:12.219Z,7.20
2019-02-19T09:08:42.690Z,7.40
2019-02-19T09:11:12.906Z,7.50
2019-02-19T09:13:43.436Z,7.60
2019-02-19T09:16:13.720Z,7.80
2019-02-19T09:18:44.477Z,7.80
2019-02-19T09:21:14.766Z,7.90
2019-02-19T09:23:45.301Z,8.10
2019-02-19T09:26:17.407Z,8.20
2019-02-19T09:28:49.444Z,8.30
2019-02-19T09:31:37.879Z,8.40
2019-02-19T09:34:08.586Z,8.50
2019-02-19T09:36:39.381Z,8.60
2019-02-19T09:39:09.927Z,8.70
2019-02-19T09:41:40.776Z,8.80
2019-02-19T09:44:11.294Z,8.80
2019-02-19T09:46:41.538Z,8.90
2019-02-19T09:49:12.053Z,9.10
2019-02-19T09:51:42.345Z,9.10
2019-02-19T09:54:12.596Z,9.30
2019-02-19T09:56:43.303Z,9.30
2019-02-19T09:59:13.456Z,9.40
2019-02-19T10:01:43.854Z,9.50
2019-02-19T10:04:14.104Z,9.60
2019-02-19T10:06:45.281Z,9.70
2019-02-19T10:09:15.567Z,9.80
2019-02-19T10:11:46.174Z,9.80
2019-02-19T10:14:16.486Z,9.90
2019-02-19T10:16:46.737Z,10.00
2019-02-19T10:19:17.273Z,10.10
2019-02-19T10:21:47.538Z,10.20
2019-02-19T10:24:17.753Z,10.30
2019-02-19T10:26:49.644Z,10.40
2019-02-19T10:29:20.079Z,10.50
2019-02-19T10:31:50.907Z,10.60
2019-02-19T10:34:21.465Z,10.60
2019-02-19T10:36:53.011Z,10.70
2019-02-19T10:39:23.199Z,10.80
2019-02-19T10:41:53.783Z,10.80
2019-02-19T10:44:24.075Z,10.90
2019-02-19T10:46:54.831Z,11.00
2019-02-19T10:49:25.365Z,11.10
2019-02-19T10:51:55.864Z,11.10
2019-02-19T10:54:26.130Z,11.20
2019-02-19T10:56:56.731Z,11.20
2019-02-19T10:59:27.055Z,11.30
2019-02-19T11:01:58.007Z,11.40
2019-02-19T11:04:28.282Z,11.50
2019-02-19T11:07:00.291Z,11.50
2019-02-19T11:09:30.542Z,11.60
2019-02-19T11:12:01.338Z,11.70
2019-02-19T11:14:31.670Z,11.70
2019-02-19T11:17:02.153Z,11.80
2019-02-19T11:19:32.402Z,11.90
2019-02-19T11:22:03.151Z,11.90
2019-02-19T11:24:33.784Z,12.00
2019-02-19T11:27:04.514Z,12.10
2019-02-19T11:29:34.806Z,12.10
2019-02-19T11:32:05.293Z,12.30
2019-02-19T11:34:35.551Z,12.40
2019-02-19T11:37:06.334Z,12.40
2019-02-19T11:39:36.658Z,12.50
2019-02-19T11:42:07.078Z,12.50
2019-02-19T11:44:37.430Z,12.50
2019-02-19T11:47:07.888Z,12.50
2019-02-19T11:49:38.157Z,12.50
2019-02-19T11:52:08.513Z,12.50
2019-02-19T11:54:38.814Z,12.60
2019-02-19T11:57:09.336Z,12.60
2019-02-19T11:59:39.588Z,12.60
2019-02-19T12:02:14.148Z,12.60
2019-02-19T12:04:44.386Z,12.70
2019-02-19T12:07:16.189Z,12.70
2019-02-19T12:09:46.451Z,12.70
2019-02-19T12:12:17.122Z,12.70
2019-02-19T12:14:47.376Z,12.70
2019-02-19T12:17:17.862Z,12.80
2019-02-19T12:19:48.250Z,12.90
2019-02-19T12:22:18.811Z,12.90
2019-02-19T12:24:49.182Z,12.90
2019-02-19T12:27:19.682Z,12.90
2019-02-19T12:29:50.050Z,13.00
2019-02-19T12:32:20.728Z,13.00
2019-02-19T12:34:51.039Z,13.00
2019-02-19T12:37:22.413Z,12.90
2019-02-19T12:39:52.686Z,13.00
2019-02-19T12:42:23.148Z,13.00
2019-02-19T12:44:53.487Z,12.90
2019-02-19T12:47:24.216Z,13.00
2019-02-19T12:49:54.530Z,13.00
2019-02-19T12:52:24.998Z,13.00
2019-02-19T12:54:55.251Z,13.10
2019-02-19T12:57:25.547Z,13.10
2019-02-19T12:59:56.742Z,13.10
2019-02-19T13:02:27.249Z,13.20
2019-02-19T13:04:57.915Z,13.20
2019-02-19T13:07:29.275Z,13.20
2019-02-19T13:10:01.219Z,13.20
2019-02-19T13:12:31.653Z,13.30
2019-02-19T13:15:02.201Z,13.30
2019-02-19T13:17:34.067Z,13.30
2019-02-19T13:20:04.839Z,13.30
2019-02-19T13:22:35.109Z,13.30
2019-02-19T13:25:06.155Z,13.30
2019-02-19T13:27:36.453Z,13.40
2019-02-19T13:30:10.475Z,13.40
2019-02-19T13:32:40.774Z,13.50
2019-02-19T13:35:12.280Z,13.50
2019-02-19T13:37:43.238Z,13.50
2019-02-19T13:40:14.185Z,13.60
2019-02-19T13:42:44.470Z,13.60
2019-02-19T13:45:15.339Z,13.60
2019-02-19T13:47:46.892Z,13.60
2019-02-19T13:50:19.470Z,13.60
2019-02-19T13:53:14.733Z,13.50
2019-02-19T13:55:48.731Z,13.50
2019-02-19T13:58:18.959Z,13.50
2019-02-19T14:00:49.980Z,13.60
2019-02-19T14:03:20.249Z,13.60
2019-02-19T14:05:50.527Z,13.50
2019-02-19T14:08:22.007Z,13.60
2019-02-19T14:10:52.239Z,13.60
2019-02-19T14:13:22.689Z,13.60
2019-02-19T14:16:11.899Z,13.60
2019-02-19T14:18:56.631Z,13.60
2019-02-19T14:21:54.676Z,13.50
2019-02-19T14:24:56.429Z,13.50
2019-02-19T14:27:44.535Z,13.50
2019-02-19T14:30:23.292Z,13.40
2019-02-19T14:33:30.833Z,13.40
2019-02-19T14:36:10.266Z,13.40
2019-02-19T14:39:00.087Z,13.30
2019-02-19T14:41:49.349Z,13.30
2019-02-19T14:44:37.397Z,13.30
2019-02-19T14:47:37.449Z,13.20
2019-02-19T14:50:42.189Z,13.20
2019-02-19T14:53:31.853Z,13.10
2019-02-19T14:56:21.135Z,13.10
2019-02-19T14:59:08.829Z,13.00
2019-02-19T15:01:53.150Z,13.00
2019-02-19T15:04:41.044Z,12.90
2019-02-19T15:07:34.573Z,12.90
2019-02-19T15:10:32.073Z,12.90
2019-02-19T15:13:21.294Z,12.80
2019-02-19T15:16:13.986Z,12.70
2019-02-19T15:18:58.169Z,12.60
2019-02-19T15:21:50.976Z,12.50
2019-02-19T15:24:41.382Z,12.40
2019-02-19T15:27:49.181Z,12.30
2019-02-19T15:30:44.391Z,12.20
2019-02-19T15:33:39.914Z,12.10
2019-02-19T15:36:29.108Z,12.00
2019-02-19T15:39:21.934Z,12.00
2019-02-19T15:42:10.976Z,11.90
2019-02-19T15:44:53.692Z,11.90
2019-02-19T15:47:57.976Z,11.80
2019-02-19T15:50:46.105Z,11.70
2019-02-19T15:53:35.306Z,11.70
2019-02-19T15:56:31.373Z,11.60
2019-02-19T15:59:16.041Z,11.50
2019-02-19T16:01:56.125Z,11.40
2019-02-19T16:04:33.789Z,11.30
2019-02-19T16:07:29.712Z,11.20
2019-02-19T16:10:27.794Z,11.10
2019-02-19T16:13:07.606Z,11.10
2019-02-19T16:16:09.001Z,11.00
2019-02-19T16:19:04.414Z,11.00
2019-02-19T16:21:49.914Z,10.90
2019-02-19T16:24:43.855Z,10.80
2019-02-19T16:27:20.446Z,10.70
2019-02-19T16:30:04.495Z,10.70
2019-02-19T16:33:02.892Z,10.60
2019-02-19T16:35:43.123Z,10.50
2019-02-19T16:38:44.302Z,10.40
2019-02-19T16:41:29.767Z,10.40
2019-02-19T16:44:23.039Z,10.30
2019-02-19T16:47:04.674Z,10.20
2019-02-19T16:49:52.566Z,10.20
2019-02-19T16:52:34.587Z,10.10
2019-02-19T16:55:14.123Z,10.00
2019-02-19T16:57:52.572Z,10.10
2019-02-19T17:00:45.936Z,10.00
2019-02-19T17:03:30.144Z,9.90
2019-02-19T17:06:22.548Z,9.90
2019-02-19T17:09:12.097Z,9.80
2019-02-19T17:12:11.584Z,9.80
2019-02-19T17:15:05.706Z,9.80
2019-02-19T17:17:53.751Z,9.70
2019-02-19T17:20:49.153Z,9.80
2019-02-19T17:23:28.348Z,9.80
2019-02-19T17:26:19.700Z,9.70
2019-02-19T17:29:11.159Z,9.70
2019-02-19T17:31:59.498Z,9.70
2019-02-19T17:34:37.423Z,9.80
2019-02-19T17:37:16.815Z,9.70
2019-02-19T17:40:11.060Z,9.70
2019-02-19T17:42:47.043Z,9.80
2019-02-19T17:45:39.847Z,9.80
2019-02-19T17:48:24.367Z,9.80
2019-02-19T17:51:13.557Z,9.90
2019-02-19T17:53:56.425Z,9.90
2019-02-19T17:56:44.595Z,9.90
2019-02-19T17:59:37.732Z,10.00
2019-02-19T18:02:29.970Z,10.00
2019-02-19T18:05:25.358Z,10.00
2019-02-19T18:08:20.636Z,10.00
2019-02-19T18:11:05.413Z,10.00
2019-02-19T18:13:49.881Z,10.10
2019-02-19T18:16:43.182Z,10.10
2019-02-19T18:19:13.487Z,10.20
2019-02-19T18:21:43.643Z,10.30
2019-02-19T18:24:13.909Z,10.30
2019-02-19T18:26:44.867Z,10.30
2019-02-19T18:29:15.345Z,10.30
2019-02-19T18:31:46.039Z,10.40
2019-02-19T18:34:16.315Z,10.40
2019-02-19T18:36:47.095Z,10.30
2019-02-19T18:39:17.426Z,10.30
2019-02-19T18:41:47.819Z,10.30
2019-02-19T18:44:18.082Z,10.20
2019-02-19T18:46:48.912Z,10.30
2019-02-19T18:49:19.200Z,10.20
2019-02-19T18:51:49.807Z,10.80
2019-02-19T18:54:20.044Z,11.10
2019-02-19T18:56:50.433Z,11.10
2019-02-19T18:59:20.720Z,11.20
2019-02-19T19:01:51.241Z,11.00
2019-02-19T19:04:21.626Z,10.60
2019-02-19T19:06:52.542Z,10.50
2019-02-19T19:09:22.914Z,10.40
2019-02-19T19:11:54.204Z,10.60
2019-02-19T19:14:24.454Z,10.40
2019-02-19T19:16:56.500Z,10.10
2019-02-19T19:19:26.967Z,10.40
2019-02-19T19:21:58.706Z,9.60
2019-02-19T19:24:29.552Z,9.30
2019-02-19T19:27:00.388Z,9.10
2019-02-19T19:29:30.725Z,9.10
2019-02-19T19:32:01.525Z,9.00
2019-02-19T19:34:32.164Z,8.90
2019-02-19T19:37:03.272Z,8.80
2019-02-19T19:39:33.883Z,8.80
2019-02-19T19:42:04.585Z,8.80
2019-02-19T19:44:35.043Z,8.70
2019-02-19T19:47:06.245Z,8.70
2019-02-19T19:49:36.599Z,8.60
2019-02-19T19:52:07.691Z,8.60
2019-02-19T19:54:38.598Z,8.60
2019-02-19T19:57:09.144Z,8.60
2019-02-19T19:59:39.776Z,8.70
2019-02-19T20:02:10.483Z,8.70
2019-02-19T20:04:41.058Z,8.70
2019-02-19T20:07:12.023Z,8.70
2019-02-19T20:09:42.503Z,8.60
2019-02-19T20:12:14.928Z,8.60
2019-02-19T20:14:45.430Z,8.60
2019-02-19T20:17:17.058Z,8.50
2019-02-19T20:19:47.819Z,8.50
2019-02-19T20:22:18.542Z,8.50
2019-02-19T20:24:49.112Z,8.50
2019-02-19T20:27:19.937Z,8.50
2019-02-19T20:29:50.943Z,8.40
2019-02-19T20:32:21.899Z,8.40
2019-02-19T20:34:52.255Z,8.50
2019-02-19T20:37:23.287Z,8.40
2019-02-19T20:39:53.954Z,8.40
2019-02-19T20:42:24.681Z,8.40
2019-02-19T20:44:55.303Z,8.40
2019-02-19T20:47:26.780Z,8.40
2019-02-19T20:49:57.484Z,8.40
2019-02-19T20:52:29.811Z,8.40
2019-02-19T20:55:01.400Z,8.30
2019-02-19T20:57:33.349Z,8.30
2019-02-19T21:00:04.601Z,8.30
2019-02-19T21:02:37.151Z,8.20
2019-02-19T21:05:08.548Z,8.30
2019-02-19T21:07:39.420Z,8.20
2019-02-19T21:10:13.225Z,8.20
2019-02-19T21:12:44.898Z,8.20
2019-02-19T21:15:15.996Z,8.10
2019-02-19T21:17:48.009Z,8.10
2019-02-19T21:20:18.384Z,8.10
2019-02-19T21:22:49.573Z,8.10
2019-02-19T21:25:19.866Z,8.10
2019-02-19T21:27:50.727Z,8.00
2019-02-19T21:30:21.481Z,8.10
2019-02-19T21:32:52.260Z,8.10
2019-02-19T21:35:22.823Z,8.00
2019-02-19T21:37:53.843Z,8.00
2019-02-19T21:40:24.235Z,7.90
2019-02-19T21:42:55.132Z,7.90
2019-02-19T21:45:25.479Z,7.80
2019-02-19T21:47:56.515Z,7.70
2019-02-19T21:50:27.088Z,7.70
2019-02-19T21:52:58.202Z,7.60
2019-02-19T21:55:28.539Z,7.50
2019-02-19T21:57:59.738Z,7.50
2019-02-19T22:00:30.312Z,7.40
2019-02-19T22:03:01.513Z,7.40
2019-02-19T22:05:32.206Z,7.30
2019-02-19T22:08:03.099Z,7.30
2019-02-19T22:10:33.744Z,7.30
2019-02-19T22:13:04.339Z,7.30
2019-02-19T22:15:34.628Z,7.30
2019-02-19T22:18:07.763Z,7.40
2019-02-19T22:20:57.108Z,7.40
2019-02-19T22:23:27.726Z,7.40
2019-02-19T22:25:58.093Z,7.50
2019-02-19T22:28:29.847Z,7.60
2019-02-19T22:31:00.203Z,7.60
2019-02-19T22:33:30.711Z,7.60
2019-02-19T22:36:01.119Z,7.60
2019-02-19T22:38:31.963Z,7.60
2019-02-19T22:41:02.288Z,7.60
2019-02-19T22:43:33.015Z,7.60
2019-02-19T22:46:03.290Z,7.60
2019-02-19T22:48:34.090Z,7.60
2019-02-19T22:51:04.413Z,7.50
2019-02-19T22:53:57.024Z,7.40
2019-02-19T22:56:36.477Z,7.40
2019-02-19T22:59:07.255Z,7.40
2019-02-19T23:01:41.230Z,7.40
2019-02-19T23:04:12.288Z,7.40
2019-02-19T23:06:42.713Z,7.40
2019-02-19T23:09:13.326Z,7.40
2019-02-19T23:11:43.548Z,7.40
2019-02-19T23:14:14.086Z,7.40
2019-02-19T23:16:44.607Z,7.40
2019-02-19T23:19:16.388Z,7.50
2019-02-19T23:21:46.713Z,7.50
2019-02-19T23:24:17.537Z,7.60
2019-02-19T23:26:49.540Z,7.60
2019-02-19T23:29:20.034Z,7.60
2019-02-19T23:31:50.532Z,7.60
2019-02-19T23:34:20.778Z,7.60
2019-02-19T23:36:56.946Z,7.70
2019-02-19T23:39:27.779Z,7.70
2019-02-19T23:41:58.096Z,7.70
2019-02-19T23:44:28.626Z,7.70
2019-02-19T23:46:58.956Z,7.70
2019-02-19T23:49:29.788Z,7.70
2019-02-19T23:52:00.124Z,7.80
2019-02-19T23:54:32.078Z,7.70
2019-02-19T23:57:02.368Z,7.70
2019-02-19T23:59:32.630Z,7.70
